createdAt,value
2022-08-23T00:02:05.446Z,9.30
2022-08-23T00:04:39.937Z,9.45
2022-08-23T00:07:28.176Z,9.45
2022-08-23T00:09:56.622Z,9.32
2022-08-23T00:12:25.332Z,9.32
2022-08-23T00:14:54.809Z,10.38
2022-08-23T00:17:30.993Z,9.68
2022-08-23T00:20:10.467Z,11.32
2022-08-23T00:22:38.492Z,10.88
2022-08-23T00:25:06.831Z,9.73
2022-08-23T00:27:34.085Z,10.77
2022-08-23T00:30:01.532Z,10.18
2022-08-23T00:32:32.543Z,9.50
2022-08-23T00:35:01.129Z,11.65
2022-08-23T00:37:32.114Z,9.93
2022-08-23T00:39:59.862Z,10.43
2022-08-23T00:42:58.644Z,11.48
2022-08-23T00:45:55.970Z,11.80
2022-08-23T00:48:23.158Z,10.95
2022-08-23T00:51:02.802Z,11.23
2022-08-23T00:53:33.969Z,10.57
2022-08-23T00:56:03.747Z,11.00
2022-08-23T00:58:30.743Z,10.53
2022-08-23T01:01:00.532Z,10.90
2022-08-23T01:03:30.463Z,10.80
2022-08-23T01:06:14.816Z,10.73
2022-08-23T01:08:45.819Z,10.03
2022-08-23T01:11:29.023Z,10.53
2022-08-23T01:14:05.683Z,9.33
2022-08-23T01:16:45.542Z,10.27
2022-08-23T01:19:22.282Z,9.93
2022-08-23T01:22:17.738Z,10.45
2022-08-23T01:25:06.313Z,10.17
2022-08-23T01:27:33.245Z,9.68
2022-08-23T01:30:00.179Z,10.38
2022-08-23T01:32:27.366Z,10.18
2022-08-23T01:34:54.139Z,10.45
2022-08-23T01:37:22.021Z,10.27
2022-08-23T01:39:48.811Z,10.20
2022-08-23T01:42:15.539Z,10.70
2022-08-23T01:44:42.251Z,10.53
2022-08-23T01:47:08.981Z,11.00
2022-08-23T01:49:35.758Z,10.13
2022-08-23T01:52:02.991Z,10.80
2022-08-23T01:54:29.689Z,11.50
2022-08-23T01:56:56.614Z,11.50
2022-08-23T01:59:24.215Z,11.53
2022-08-23T02:01:51.562Z,13.07
2022-08-23T02:04:18.797Z,10.87
2022-08-23T02:06:45.997Z,12.40
2022-08-23T02:09:17.312Z,13.45
2022-08-23T02:11:45.932Z,13.50
2022-08-23T02:14:15.494Z,12.20
2022-08-23T02:17:03.378Z,15.33
2022-08-23T02:19:33.526Z,13.13
2022-08-23T02:22:00.653Z,12.27
2022-08-23T02:24:27.502Z,12.77
2022-08-23T02:26:57.242Z,13.93
2022-08-23T02:29:26.096Z,15.20
2022-08-23T02:31:53.387Z,15.20
2022-08-23T02:34:22.384Z,14.33
2022-08-23T02:36:51.456Z,15.13
2022-08-23T02:39:18.573Z,14.00
2022-08-23T02:41:45.418Z,12.90
2022-08-23T02:44:12.951Z,12.77
2022-08-23T02:46:41.158Z,12.70
2022-08-23T02:49:08.915Z,12.07
2022-08-23T02:51:35.741Z,14.20
2022-08-23T02:54:02.839Z,13.20
2022-08-23T02:56:29.807Z,14.13
2022-08-23T02:58:56.561Z,13.33
2022-08-23T03:01:29.544Z,13.03
2022-08-23T03:03:58.383Z,12.57
2022-08-23T03:06:26.449Z,13.80
2022-08-23T03:08:55.160Z,13.33
2022-08-23T03:11:22.726Z,11.33
2022-08-23T03:13:50.810Z,12.67
2022-08-23T03:16:18.611Z,13.03
2022-08-23T03:18:45.787Z,12.03
2022-08-23T03:21:12.922Z,12.70
2022-08-23T03:23:40.992Z,13.50
2022-08-23T03:26:10.273Z,12.63
2022-08-23T03:28:38.427Z,12.03
2022-08-23T03:31:06.530Z,12.60
2022-08-23T03:33:33.291Z,12.47
2022-08-23T03:36:02.166Z,12.97
2022-08-23T03:38:28.926Z,11.87
2022-08-23T03:40:55.725Z,13.17
2022-08-23T03:43:22.757Z,13.97
2022-08-23T03:45:49.651Z,13.20
2022-08-23T03:48:16.876Z,13.27
2022-08-23T03:50:44.470Z,13.60
2022-08-23T03:53:12.172Z,12.47
2022-08-23T03:55:42.220Z,12.47
2022-08-23T03:58:10.430Z,14.90
2022-08-23T04:00:37.734Z,15.47
2022-08-23T04:03:05.047Z,14.33
2022-08-23T04:05:31.813Z,14.20
2022-08-23T04:07:58.803Z,15.00
2022-08-23T04:10:25.860Z,15.33
2022-08-23T04:12:54.999Z,15.07
2022-08-23T04:15:22.692Z,16.50
2022-08-23T04:17:49.561Z,15.77
2022-08-23T04:20:16.597Z,15.73
2022-08-23T04:22:44.614Z,15.73
2022-08-23T04:25:33.779Z,16.53
2022-08-23T04:28:00.910Z,16.07
2022-08-23T04:30:28.083Z,15.53
2022-08-23T04:32:55.504Z,15.67
2022-08-23T04:35:22.781Z,16.13
2022-08-23T04:37:49.535Z,16.83
2022-08-23T04:40:35.701Z,15.90
2022-08-23T04:43:02.949Z,15.97
2022-08-23T04:45:32.479Z,15.80
2022-08-23T04:47:59.330Z,15.67
2022-08-23T04:50:26.244Z,14.77
2022-08-23T04:52:53.221Z,16.60
2022-08-23T04:55:20.192Z,15.77
2022-08-23T04:57:47.073Z,15.77
2022-08-23T05:00:16.338Z,15.37
2022-08-23T05:02:43.938Z,15.40
2022-08-23T05:05:11.325Z,14.73
2022-08-23T05:07:42.653Z,15.00
2022-08-23T05:10:12.918Z,16.53
2022-08-23T05:12:40.587Z,17.27
2022-08-23T05:15:09.485Z,17.13
2022-08-23T05:17:37.208Z,17.53
2022-08-23T05:20:08.267Z,16.37
2022-08-23T05:22:39.632Z,18.30
2022-08-23T05:25:06.716Z,17.30
2022-08-23T05:27:33.650Z,18.30
2022-08-23T05:30:00.671Z,17.23
2022-08-23T05:32:30.414Z,16.80
2022-08-23T05:35:00.145Z,17.00
2022-08-23T05:37:27.225Z,17.00
2022-08-23T05:39:54.093Z,15.40
2022-08-23T05:42:21.121Z,15.88
2022-08-23T05:44:48.024Z,16.02
2022-08-23T05:47:16.315Z,14.23
2022-08-23T05:49:45.009Z,13.60
2022-08-23T05:52:13.537Z,13.73
2022-08-23T05:54:40.779Z,14.27
2022-08-23T05:57:07.658Z,13.55
2022-08-23T05:59:34.929Z,15.13
2022-08-23T06:02:02.129Z,14.43
2022-08-23T06:04:29.083Z,14.25
2022-08-23T06:06:58.876Z,13.63
2022-08-23T06:09:26.395Z,13.18
2022-08-23T06:11:53.951Z,13.48
2022-08-23T06:14:21.069Z,13.75
2022-08-23T06:16:53.639Z,13.82
2022-08-23T06:19:23.967Z,14.73
2022-08-23T06:21:52.272Z,14.45
2022-08-23T06:24:20.082Z,14.40
2022-08-23T06:26:47.353Z,15.32
2022-08-23T06:29:18.862Z,14.43
2022-08-23T06:31:49.146Z,15.98
2022-08-23T06:34:25.603Z,15.93
2022-08-23T06:36:58.186Z,16.90
2022-08-23T06:39:28.326Z,17.70
2022-08-23T06:42:00.786Z,16.27
2022-08-23T06:44:28.984Z,15.38
2022-08-23T06:46:56.789Z,16.05
2022-08-23T06:49:24.864Z,15.55
2022-08-23T06:51:56.084Z,15.55
2022-08-23T06:54:28.346Z,16.30
2022-08-23T06:56:56.554Z,14.75
2022-08-23T06:59:23.575Z,15.00
2022-08-23T07:02:07.800Z,16.63
2022-08-23T07:04:38.447Z,15.95
2022-08-23T07:07:11.160Z,16.75
2022-08-23T07:09:39.516Z,16.38
2022-08-23T07:12:06.699Z,15.35
2022-08-23T07:14:34.031Z,15.43
2022-08-23T07:17:03.401Z,15.52
2022-08-23T07:19:33.385Z,14.52
2022-08-23T07:22:01.411Z,14.35
2022-08-23T07:24:32.868Z,14.88
2022-08-23T07:27:01.579Z,14.23
2022-08-23T07:29:30.124Z,14.55
2022-08-23T07:31:57.914Z,14.25
2022-08-23T07:34:29.193Z,14.65
2022-08-23T07:36:56.166Z,14.23
2022-08-23T07:39:23.751Z,13.25
2022-08-23T07:41:52.651Z,12.40
2022-08-23T07:44:20.183Z,11.38
2022-08-23T07:46:52.980Z,11.50
2022-08-23T07:49:23.316Z,11.15
2022-08-23T07:52:00.104Z,12.13
2022-08-23T07:54:28.437Z,11.18
2022-08-23T07:56:55.443Z,11.48
2022-08-23T07:59:24.854Z,11.93
2022-08-23T08:01:51.667Z,11.68
2022-08-23T08:04:18.482Z,10.88
2022-08-23T08:06:59.909Z,10.38
2022-08-23T08:09:31.913Z,10.98
2022-08-23T08:11:58.896Z,10.32
2022-08-23T08:14:25.684Z,9.40
2022-08-23T08:16:54.338Z,10.00
2022-08-23T08:19:21.352Z,9.82
2022-08-23T08:21:51.752Z,9.73
2022-08-23T08:24:19.075Z,9.63
2022-08-23T08:26:47.401Z,9.30
2022-08-23T08:29:14.490Z,8.98
2022-08-23T08:31:43.033Z,9.18
2022-08-23T08:34:10.231Z,9.48
2022-08-23T08:36:46.431Z,8.98
2022-08-23T08:39:19.859Z,8.43
2022-08-23T08:42:00.388Z,7.85
2022-08-23T08:44:47.676Z,7.60
2022-08-23T08:47:24.464Z,8.02
2022-08-23T08:50:22.550Z,7.82
2022-08-23T08:56:05.161Z,7.15
2022-08-23T08:58:53.003Z,6.63
2022-08-23T09:01:45.956Z,6.03
2022-08-23T09:04:30.393Z,5.88
2022-08-23T09:07:31.085Z,5.07
2022-08-23T09:10:14.092Z,6.18
2022-08-23T09:13:13.075Z,5.57
2022-08-23T09:15:57.828Z,6.10
2022-08-23T09:18:25.238Z,5.30
2022-08-23T09:21:32.258Z,5.35
2022-08-23T09:27:51.024Z,4.00
2022-08-23T09:37:13.605Z,3.97
2022-08-23T09:40:04.683Z,3.72
2022-08-23T09:42:37.511Z,4.30
2022-08-23T09:45:24.157Z,3.90
2022-08-23T09:47:50.998Z,4.40
2022-08-23T09:50:26.375Z,3.90
2022-08-23T09:53:11.677Z,3.70
2022-08-23T09:55:51.416Z,4.03
2022-08-23T09:58:29.588Z,3.70
2022-08-23T10:01:18.297Z,3.55
2022-08-23T10:03:46.333Z,3.50
2022-08-23T10:06:31.008Z,3.75
2022-08-23T10:09:04.439Z,4.00
2022-08-23T10:11:45.294Z,3.30
2022-08-23T10:14:19.436Z,3.75
2022-08-23T10:17:11.167Z,3.90
2022-08-23T10:19:49.859Z,3.20
2022-08-23T10:22:23.718Z,3.38
2022-08-23T10:25:24.145Z,3.40
2022-08-23T10:28:40.725Z,3.80
2022-08-23T10:31:19.124Z,3.70
2022-08-23T10:34:24.569Z,3.70
2022-08-23T10:37:03.329Z,4.00
2022-08-23T10:39:31.581Z,4.00
2022-08-23T10:42:08.016Z,3.53
2022-08-23T10:44:50.919Z,4.00
2022-08-23T10:47:41.687Z,4.88
2022-08-23T10:50:13.092Z,4.82
2022-08-23T10:53:05.086Z,4.07
2022-08-23T10:55:54.704Z,4.90
2022-08-23T10:58:26.013Z,5.25
2022-08-23T11:00:57.698Z,4.07
2022-08-23T11:03:30.321Z,3.92
2022-08-23T11:06:35.004Z,3.83
2022-08-23T11:09:21.928Z,3.35
2022-08-23T11:12:11.074Z,3.70
2022-08-23T11:14:46.160Z,3.47
2022-08-23T11:17:29.773Z,2.97
2022-08-23T11:20:15.641Z,3.45
2022-08-23T11:23:11.109Z,2.95
2022-08-23T11:29:52.297Z,3.28
2022-08-23T11:32:42.870Z,2.83
2022-08-23T11:35:47.791Z,2.65
2022-08-23T11:41:50.317Z,3.40
2022-08-23T11:44:46.235Z,2.83
2022-08-23T11:47:13.243Z,3.33
2022-08-23T11:49:52.089Z,3.65
2022-08-23T11:52:47.538Z,3.22
2022-08-23T11:55:32.889Z,3.17
2022-08-23T11:58:27.339Z,3.08
2022-08-23T12:01:08.701Z,3.10
2022-08-23T12:03:52.880Z,3.30
2022-08-23T12:06:19.692Z,3.03
2022-08-23T12:09:01.916Z,3.10
2022-08-23T12:11:56.899Z,2.75
2022-08-23T12:14:47.032Z,3.50
2022-08-23T12:32:49.354Z,2.97
2022-08-23T12:35:34.652Z,3.60
2022-08-23T12:38:01.656Z,3.60
2022-08-23T12:40:36.746Z,3.45
2022-08-23T12:43:36.278Z,3.38
2022-08-23T12:46:03.490Z,3.33
2022-08-23T12:48:44.958Z,3.05
2022-08-23T12:51:14.215Z,3.35
2022-08-23T12:53:45.643Z,2.95
2022-08-23T12:56:32.243Z,3.30
2022-08-23T12:59:04.966Z,3.72
2022-08-23T13:01:35.857Z,3.95
2022-08-23T13:04:13.550Z,3.47
2022-08-23T13:06:58.847Z,3.20
2022-08-23T13:09:36.942Z,3.15
2022-08-23T13:12:06.336Z,3.25
2022-08-23T13:14:41.086Z,3.05
2022-08-23T13:17:18.731Z,3.10
2022-08-23T13:19:47.922Z,3.30
2022-08-23T13:22:25.901Z,3.38
2022-08-23T13:25:27.505Z,3.20
2022-08-23T13:28:01.345Z,2.90
2022-08-23T13:30:32.113Z,3.20
2022-08-23T13:33:08.120Z,3.45
2022-08-23T13:35:37.127Z,3.53
2022-08-23T13:38:20.966Z,3.20
2022-08-23T13:41:00.823Z,3.53
2022-08-23T13:43:33.841Z,3.40
2022-08-23T13:46:22.692Z,3.58
2022-08-23T13:48:54.730Z,3.45
2022-08-23T13:51:31.563Z,3.47
2022-08-23T13:54:00.640Z,3.00
2022-08-23T13:56:29.387Z,2.95
2022-08-23T13:59:00.271Z,3.42
2022-08-23T14:01:27.712Z,3.10
2022-08-23T14:03:55.020Z,3.05
2022-08-23T14:06:22.379Z,3.35
2022-08-23T14:08:49.604Z,3.40
2022-08-23T14:11:16.711Z,3.42
2022-08-23T14:13:46.141Z,3.83
2022-08-23T14:16:39.715Z,3.45
2022-08-23T14:19:16.215Z,3.30
2022-08-23T14:21:45.174Z,3.22
2022-08-23T14:24:20.045Z,3.45
2022-08-23T14:26:48.912Z,3.58
2022-08-23T14:29:22.896Z,3.53
2022-08-23T14:31:51.438Z,3.10
2022-08-23T14:34:18.506Z,3.30
2022-08-23T14:39:31.947Z,3.30
2022-08-23T14:41:58.759Z,3.25
2022-08-23T14:44:30.257Z,2.75
2022-08-23T14:47:00.110Z,3.15
2022-08-23T14:49:26.833Z,3.40
2022-08-23T14:51:54.099Z,2.90
2022-08-23T14:54:25.368Z,3.00
2022-08-23T14:56:53.301Z,2.95
2022-08-23T14:59:24.311Z,2.63
2022-08-23T15:01:55.822Z,2.90
2022-08-23T15:04:35.111Z,2.35
2022-08-23T15:07:18.902Z,2.70
2022-08-23T15:12:56.945Z,2.80
2022-08-23T15:16:51.130Z,2.72
2022-08-23T15:19:25.852Z,2.22
2022-08-23T15:21:55.883Z,2.70
2022-08-23T15:24:25.473Z,2.50
2022-08-23T15:26:56.306Z,2.90
2022-08-23T15:29:23.992Z,2.40
2022-08-23T15:31:58.991Z,2.20
2022-08-23T15:34:26.026Z,2.70
2022-08-23T15:37:00.931Z,2.20
2022-08-23T15:39:31.100Z,2.53
2022-08-23T15:41:58.224Z,2.10
2022-08-23T15:44:25.967Z,1.98
2022-08-23T15:47:16.486Z,2.33
2022-08-23T15:49:46.195Z,2.50
2022-08-23T15:52:22.251Z,2.20
2022-08-23T15:55:43.772Z,2.30
2022-08-23T15:57:50.328Z,2.50
2022-08-23T16:00:23.091Z,2.63
2022-08-23T16:03:19.094Z,2.70
2022-08-23T16:05:44.169Z,2.30
2022-08-23T16:08:25.689Z,2.47
2022-08-23T16:10:59.144Z,1.90
2022-08-23T16:13:31.626Z,2.03
2022-08-23T16:16:24.800Z,1.75
2022-08-23T16:18:56.116Z,2.08
2022-08-23T16:21:30.833Z,1.67
2022-08-23T16:24:15.299Z,1.75
2022-08-23T16:26:52.208Z,1.88
2022-08-23T16:29:23.917Z,1.70
2022-08-23T16:31:56.237Z,2.20
2022-08-23T16:34:47.741Z,1.80
2022-08-23T16:37:17.512Z,1.83
2022-08-23T16:39:46.050Z,2.00
2022-08-23T16:42:34.305Z,1.80
2022-08-23T16:45:07.078Z,1.88
2022-08-23T16:48:14.853Z,2.00
2022-08-23T16:50:55.965Z,1.60
2022-08-23T16:53:41.853Z,1.60
2022-08-23T16:56:54.304Z,2.13
2022-08-23T16:59:25.685Z,1.95
2022-08-23T17:02:23.107Z,2.20
2022-08-23T17:14:19.867Z,1.98
2022-08-23T17:21:08.148Z,2.00
2022-08-23T17:30:20.738Z,2.33
2022-08-23T17:32:48.910Z,2.42
2022-08-23T17:35:19.953Z,1.90
2022-08-23T17:37:50.009Z,2.05
2022-08-23T17:40:22.111Z,2.38
2022-08-23T17:42:49.948Z,2.42
2022-08-23T17:45:20.702Z,2.70
2022-08-23T17:47:48.064Z,2.65
2022-08-23T17:50:17.369Z,2.78
2022-08-23T17:52:45.206Z,3.05
2022-08-23T17:55:19.363Z,2.78
2022-08-23T17:57:48.317Z,2.20
2022-08-23T18:00:18.151Z,2.10
2022-08-23T18:02:45.010Z,2.40
2022-08-23T18:05:15.240Z,2.15
2022-08-23T18:07:44.924Z,2.53
2022-08-23T18:10:12.452Z,2.10
2022-08-23T18:12:40.607Z,2.88
2022-08-23T18:15:09.130Z,2.67
2022-08-23T18:17:36.109Z,2.70
2022-08-23T18:20:07.068Z,2.80
2022-08-23T18:22:33.918Z,3.35
2022-08-23T18:25:02.018Z,3.40
2022-08-23T18:27:47.288Z,3.60
2022-08-23T18:30:15.159Z,4.00
2022-08-23T18:32:41.998Z,3.90
2022-08-23T18:35:09.443Z,4.72
2022-08-23T18:37:36.450Z,4.45
2022-08-23T18:40:09.093Z,4.75
2022-08-23T18:42:37.620Z,3.80
2022-08-23T18:45:05.819Z,4.38
2022-08-23T18:47:33.556Z,3.97
2022-08-23T18:50:00.761Z,3.97
2022-08-23T18:52:29.169Z,4.45
2022-08-23T18:54:57.963Z,5.03
2022-08-23T18:57:24.984Z,6.15
2022-08-23T18:59:51.707Z,6.28
2022-08-23T19:02:19.698Z,6.53
2022-08-23T19:04:48.565Z,6.00
2022-08-23T19:07:16.391Z,5.90
2022-08-23T19:09:43.642Z,5.80
2022-08-23T19:12:10.581Z,6.22
2022-08-23T19:14:37.523Z,5.78
2022-08-23T19:17:08.297Z,6.05
2022-08-23T19:19:35.641Z,6.07
2022-08-23T19:22:03.511Z,6.45
2022-08-23T19:24:30.431Z,6.45
2022-08-23T19:26:57.536Z,6.93
2022-08-23T19:29:24.366Z,6.07
2022-08-23T19:31:51.239Z,8.13
2022-08-23T19:34:19.965Z,7.38
2022-08-23T19:37:00.377Z,6.95
2022-08-23T19:39:29.603Z,6.43
2022-08-23T19:41:56.704Z,6.50
2022-08-23T19:44:24.241Z,6.72
2022-08-23T19:46:51.208Z,7.22
2022-08-23T19:49:18.043Z,6.22
2022-08-23T19:51:44.956Z,6.53
2022-08-23T19:54:13.869Z,7.05
2022-08-23T19:56:49.710Z,7.32
2022-08-23T19:59:20.500Z,6.97
2022-08-23T20:01:52.739Z,7.10
2022-08-23T20:04:21.236Z,7.72
2022-08-23T20:06:48.986Z,7.35
2022-08-23T20:09:16.855Z,8.00
2022-08-23T20:11:44.388Z,6.72
2022-08-23T20:14:12.060Z,7.07
2022-08-23T20:16:42.656Z,8.52
2022-08-23T20:19:14.096Z,8.05
2022-08-23T20:21:44.775Z,8.18
2022-08-23T20:24:14.179Z,8.82
2022-08-23T20:26:43.987Z,8.40
2022-08-23T20:29:23.677Z,7.72
2022-08-23T20:31:53.381Z,7.93
2022-08-23T20:34:22.109Z,7.68
2022-08-23T20:36:52.969Z,8.50
2022-08-23T20:39:24.019Z,8.23
2022-08-23T20:41:52.078Z,7.75
2022-08-23T20:44:22.688Z,7.55
2022-08-23T20:46:53.995Z,8.80
2022-08-23T20:49:23.239Z,7.25
2022-08-23T20:51:50.792Z,9.10
2022-08-23T20:54:18.566Z,9.68
2022-08-23T20:56:46.082Z,9.77
2022-08-23T20:59:14.753Z,8.77
2022-08-23T21:01:41.767Z,8.15
2022-08-23T21:04:11.598Z,9.02
2022-08-23T21:06:49.983Z,9.10
2022-08-23T21:09:27.703Z,9.43
2022-08-23T21:11:56.734Z,8.32
2022-08-23T21:14:23.845Z,9.57
2022-08-23T21:16:51.304Z,9.65
2022-08-23T21:19:19.199Z,9.63
2022-08-23T21:21:46.338Z,9.02
2022-08-23T21:24:13.559Z,8.57
2022-08-23T21:26:41.086Z,8.57
2022-08-23T21:29:09.127Z,8.10
2022-08-23T21:31:36.410Z,9.15
2022-08-23T21:34:03.581Z,8.32
2022-08-23T21:36:31.727Z,8.43
2022-08-23T21:38:58.626Z,8.75
2022-08-23T21:41:43.462Z,9.15
2022-08-23T21:44:16.981Z,8.75
2022-08-23T21:46:44.882Z,8.18
2022-08-23T21:49:12.700Z,8.80
2022-08-23T21:51:41.095Z,9.18
2022-08-23T21:54:11.048Z,9.30
2022-08-23T21:56:38.934Z,10.77
2022-08-23T21:59:08.893Z,10.25
2022-08-23T22:01:36.625Z,10.02
2022-08-23T22:04:06.559Z,10.48
2022-08-23T22:06:35.289Z,9.30
2022-08-23T22:09:02.839Z,9.05
2022-08-23T22:11:30.259Z,10.00
2022-08-23T22:13:57.321Z,11.20
2022-08-23T22:16:24.361Z,9.55
2022-08-23T22:18:51.812Z,10.40
2022-08-23T22:21:19.497Z,10.13
2022-08-23T22:23:46.528Z,10.07
2022-08-23T22:26:14.077Z,9.25
2022-08-23T22:28:48.360Z,9.77
2022-08-23T22:31:15.842Z,9.30
2022-08-23T22:33:43.920Z,9.32
2022-08-23T22:36:18.520Z,8.73
2022-08-23T22:38:45.858Z,9.65
2022-08-23T22:41:17.618Z,9.10
2022-08-23T22:43:48.484Z,10.15
2022-08-23T22:46:22.434Z,8.80
2022-08-23T22:48:49.929Z,9.25
2022-08-23T22:51:25.737Z,10.15
2022-08-23T22:53:55.065Z,8.27
2022-08-23T22:56:25.598Z,9.63
2022-08-23T22:58:53.748Z,9.57
2022-08-23T23:01:27.500Z,9.10
2022-08-23T23:04:26.911Z,10.10
2022-08-23T23:06:55.664Z,8.80
2022-08-23T23:09:23.447Z,9.52
2022-08-23T23:11:54.825Z,9.05
2022-08-23T23:14:27.801Z,9.60
2022-08-23T23:16:55.952Z,8.88
2022-08-23T23:19:41.464Z,8.98
2022-08-23T23:22:14.399Z,10.52
2022-08-23T23:24:41.501Z,9.38
2022-08-23T23:27:09.032Z,9.90
2022-08-23T23:29:36.390Z,8.95
2022-08-23T23:32:05.111Z,9.30
2022-08-23T23:34:32.347Z,9.32
2022-08-23T23:36:59.787Z,9.48
2022-08-23T23:39:27.948Z,9.68
2022-08-23T23:41:55.565Z,9.32
2022-08-23T23:44:31.578Z,9.55
2022-08-23T23:47:03.056Z,9.60
2022-08-23T23:49:36.185Z,9.45
2022-08-23T23:52:05.406Z,10.00
2022-08-23T23:54:34.069Z,10.10
2022-08-23T23:57:01.620Z,9.73
2022-08-23T23:59:28.659Z,9.77
